Altamira do Maranhao, Brazil
Current Conditions -  °F | °C
As of 5:00 PM on Sunday 23 Nov 2014 (Local Time) from SBSL Reporting Station
Few Clouds Few Clouds  
Wind Chill: 86°   Ceiling: Unl
Heat Index: 88°   Visibility: 6mi
Dew Point: 66°   Wind: 15mph
Humidity: 51%   Direction: 50°NE
Pressure: 29.83"   Gusts: NA
Location:  4.06°S, 45.5°W
Report Text: SBSL 232000Z 05013KT 9999 FEW020 30/19 Q1010
Loading
Personal Weather Stations






























Interactive Weather Map New forecast layout! Learn more

10-Day Weather Forecast

Advertisements
Track Severe Weather on mobile